Reply To: What happened to Hitatchi 79 2.0 release

HomeForumsGeneral DiscussionWhat happened to Hitatchi 79 2.0 releaseReply To: What happened to Hitatchi 79 2.0 release

Author Replies
toestarx # Posted on 2011-11-23 at 04:41AM UTC
avatar

FW progress, a stranded’s log

It has been 23 days since Hitachi owners became stranded on this island without any xbox 360 framework. Supplies are running low, and my fellow islanders are becoming restless. Many seem to have been severely, severely brain damaged in the crash. 4, 8, 15, 16, 23, 42

TAF CYOW 230238Z 2303/2324 07012KT P6SM OVC120
FM230500 08012KT P6SM OVC070 TEMPO 2305/2306 2SM -SN BKN020
OVC070
FM230600 07015KT 3/4SM -SN VV008 TEMPO 2306/2311 2SM -SN OVC010
PROB30 2306/2308 3SM -SNPL
FM231100 06015KT 3SM -SN OVC010
FM231300 05015KT 6SM -SHSN OVC015
FM231600 04010KT P6SM BKN020
RMK NXT FCST BY 230600Z

Our chances of rescue remain slim. We spotted rescue helicopters weeks ago, but they were busy rescuing people on other islands. No sign of anything in weeks now. 4, 8, 15, 16, 23, 42

To anyone who finds this log, remember us as we were, impatient.